KMDS

Details ICAO KMDS
Name Madison Muni
Region United States
Timezone America/Chicago (UTC-6.0)
Plans Departing 1
Arriving 1
Stats Elevation 1,716 ft / 523 m (AMSL)
Location 44.016218° -97.085043°
Runways 2
Magnetic Variation 3.297° E
Sunrise 2017-12-14 13:57:04 UTC / 2017-12-14 07:57:04 Local
Sunset 2017-12-14 22:52:01 UTC / 2017-12-14 16:52:01 Local
Advertisement - Login to hide

Runways

ID Width Length Bearing (true) Bearing (mag) Surface Threshold Offset Overrun Length
03 200 ft / 61 m 2,429 ft / 740 m 34.47° 31.17° Grass 0 ft / 0 m 0 ft / 0 m
15 75 ft / 23 m 5,003 ft / 1,525 m 153.83° 150.53° Concrete 0 ft / 0 m 0 ft / 0 m
21 200 ft / 61 m 2,429 ft / 740 m 214.48° 211.18° Grass 0 ft / 0 m 0 ft / 0 m
33 75 ft / 23 m 5,003 ft / 1,525 m 333.83° 330.53° Concrete 0 ft / 0 m 0 ft / 0 m

Map

Weather


0- 5 10 15 20 25 30 35+ Temperature / ° C

Clouds and Precipitation
Forecast for 2017-12-15 00:00 UTC. Updated 2 hours ago

Ground ~20,000 ft ~40,000 ft Winds

METAR

KMDS 150115Z AUTO 34013KT 10SM BKN016 M03/M03 A3010 RMK AO2

TAF

Not found

Frequencies

Unicom 122.80 MHz CTAF/UNICOM
Warning: Do not use this data for real-world aviation or navigation. No guarantee of current accuracy is given.